KINS/INS METAR and TAF weather

Enter ICAO airport designator
Station Type Date Time Source
KINS METAR 2022/11/30 15:55 UTC NOAA

KINS 301555Z AUTO 00000KT 10SM CLR M02/M11 A3008 RMK AO2 SLP191 T10181114 $


Station Type Date Time Source
KINS Decoded METAR 2022/11/30 15:55 UTC NOAA

Indian Springs, Indian Springs Auxiliary AFLD Nellis AFB, NV, United States (KINS) 36-35N 115-40W
Nov 30, 2022 - 10:55 AM EST / 2022.11.30 1555 UTC
Wind: Calm:0
Visibility: 10 mile(s):0
Sky conditions: clear
Temperature: 28.8 F (-1.8 C)
Dew Point: 11.5 F (-11.4 C)
Relative Humidity: 47%
Pressure (altimeter): 30.08 in. Hg (1018 hPa)
ob: KINS 301555Z AUTO 00000KT 10SM CLR M02/M11 A3008 RMK AO2 SLP191 T10181114
cycle: 16

Station Type Date Time Source
KINS TAF 2022/11/30 13:12 UTC NOAA

TAF KINS 301305Z 3013/0119 VRB06KT 9999 FEW250 QNH3004INS
BECMG 3017/3018 10009KT 9999 SCT250 QNH2990INS
TEMPO 3022/0102 12010G17KT
BECMG 0105/0106 VRB06KT 9999 SCT250 QNH2992INS
BECMG 0114/0115 16012KT 9999 SCT060 BKN200 QNH2990INS TX12/3022Z TNM04/3013Z

Example: see airport list